sensor_id;sensor_type;location;lat;lon;timestamp;pressure;altitude;pressure_sealevel;temperature;humidity
6532;BME280;3299;42.004;24.868;2023-05-16T00:00:20;98052.50;;;13.88;100.00
6532;BME280;3299;42.004;24.868;2023-05-16T00:02:46;98054.72;;;13.93;100.00
6532;BME280;3299;42.004;24.868;2023-05-16T00:05:12;98031.16;;;13.85;100.00
6532;BME280;3299;42.004;24.868;2023-05-16T00:07:41;98068.72;;;14.11;100.00
6532;BME280;3299;42.004;24.868;2023-05-16T00:10:08;98000.06;;;13.74;100.00
6532;BME280;3299;42.004;24.868;2023-05-16T00:12:33;98068.84;;;14.09;100.00
6532;BME280;3299;42.004;24.868;2023-05-16T00:15:01;98065.16;;;14.12;100.00
6532;BME280;3299;42.004;24.868;2023-05-16T00:17:26;97981.53;;;13.58;100.00
6532;BME280;3299;42.004;24.868;2023-05-16T00:19:53;98001.84;;;13.73;100.00
6532;BME280;3299;42.004;24.868;2023-05-16T00:22:25;98057.34;;;14.12;100.00
6532;BME280;3299;42.004;24.868;2023-05-16T00:24:51;98046.78;;;14.04;100.00
6532;BME280;3299;42.004;24.868;2023-05-16T00:27:16;98022.66;;;13.73;100.00
6532;BME280;3299;42.004;24.868;2023-05-16T00:29:42;98041.00;;;13.91;100.00
6532;BME280;3299;42.004;24.868;2023-05-16T00:32:07;98055.81;;;14.00;100.00
6532;BME280;3299;42.004;24.868;2023-05-16T00:34:33;98041.56;;;13.85;100.00
6532;BME280;3299;42.004;24.868;2023-05-16T00:36:59;98024.28;;;13.74;100.00
6532;BME280;3299;42.004;24.868;2023-05-16T00:39:24;98052.50;;;13.98;100.00
6532;BME280;3299;42.004;24.868;2023-05-16T00:41:50;98041.56;;;13.85;100.00
6532;BME280;3299;42.004;24.868;2023-05-16T00:44:16;98012.94;;;13.75;100.00
6532;BME280;3299;42.004;24.868;2023-05-16T00:46:41;98052.38;;;13.99;100.00
6532;BME280;3299;42.004;24.868;2023-05-16T00:49:08;98058.69;;;13.97;100.00
6532;BME280;3299;42.004;24.868;2023-05-16T00:51:33;97967.97;;;13.45;100.00
6532;BME280;3299;42.004;24.868;2023-05-16T00:53:59;98016.59;;;13.63;100.00
6532;BME280;3299;42.004;24.868;2023-05-16T00:56:25;98047.97;;;13.81;100.00
6532;BME280;3299;42.004;24.868;2023-05-16T00:58:50;98019.06;;;13.55;100.00
6532;BME280;3299;42.004;24.868;2023-05-16T01:01:16;98053.03;;;13.73;100.00
6532;BME280;3299;42.004;24.868;2023-05-16T01:03:43;98035.47;;;13.65;100.00
6532;BME280;3299;42.004;24.868;2023-05-16T01:06:11;98042.06;;;13.69;100.00
6532;BME280;3299;42.004;24.868;2023-05-16T01:08:36;98000.13;;;13.44;100.00
6532;BME280;3299;42.004;24.868;2023-05-16T01:11:27;98034.16;;;13.71;100.00
6532;BME280;3299;42.004;24.868;2023-05-16T01:28:10;97941.84;;;13.37;100.00
6532;BME280;3299;42.004;24.868;2023-05-16T01:30:39;97979.66;;;13.69;100.00
6532;BME280;3299;42.004;24.868;2023-05-16T01:33:06;98021.59;;;13.95;100.00
6532;BME280;3299;42.004;24.868;2023-05-16T01:35:32;97938.81;;;13.32;100.00
6532;BME280;3299;42.004;24.868;2023-05-16T01:38:09;98010.03;;;13.69;100.00
6532;BME280;3299;42.004;24.868;2023-05-16T01:43:37;97928.97;;;13.26;100.00
6532;BME280;3299;42.004;24.868;2023-05-16T01:46:10;97925.59;;;13.35;100.00
6532;BME280;3299;42.004;24.868;2023-05-16T01:51:20;97941.63;;;13.49;100.00
6532;BME280;3299;42.004;24.868;2023-05-16T01:53:47;97913.94;;;13.29;100.00
6532;BME280;3299;42.004;24.868;2023-05-16T01:56:15;97985.28;;;13.65;100.00
6532;BME280;3299;42.004;24.868;2023-05-16T01:58:41;97908.72;;;13.20;100.00
6532;BME280;3299;42.004;24.868;2023-05-16T02:01:07;97901.88;;;13.19;100.00
6532;BME280;3299;42.004;24.868;2023-05-16T02:03:33;97940.50;;;13.52;100.00
6532;BME280;3299;42.004;24.868;2023-05-16T02:05:59;97887.00;;;13.30;100.00
6532;BME280;3299;42.004;24.868;2023-05-16T02:08:29;97936.97;;;13.53;100.00
6532;BME280;3299;42.004;24.868;2023-05-16T02:10:55;97969.28;;;13.69;100.00
6532;BME280;3299;42.004;24.868;2023-05-16T02:13:20;97923.53;;;13.29;100.00
6532;BME280;3299;42.004;24.868;2023-05-16T02:15:46;97963.75;;;13.44;100.00
6532;BME280;3299;42.004;24.868;2023-05-16T02:18:11;97912.41;;;13.27;100.00
6532;BME280;3299;42.004;24.868;2023-05-16T02:20:37;97877.09;;;13.05;100.00
6532;BME280;3299;42.004;24.868;2023-05-16T02:23:06;97889.56;;;13.21;100.00
6532;BME280;3299;42.004;24.868;2023-05-16T02:25:31;97915.56;;;13.30;100.00
6532;BME280;3299;42.004;24.868;2023-05-16T02:27:57;97876.13;;;12.97;100.00
6532;BME280;3299;42.004;24.868;2023-05-16T02:30:22;97905.16;;;13.21;100.00
6532;BME280;3299;42.004;24.868;2023-05-16T02:32:48;97934.63;;;13.50;100.00
6532;BME280;3299;42.004;24.868;2023-05-16T02:35:13;97937.78;;;13.53;100.00
6532;BME280;3299;42.004;24.868;2023-05-16T02:37:40;97915.88;;;13.37;100.00
6532;BME280;3299;42.004;24.868;2023-05-16T02:40:06;97911.47;;;13.28;100.00
6532;BME280;3299;42.004;24.868;2023-05-16T02:42:34;97949.00;;;13.44;100.00
6532;BME280;3299;42.004;24.868;2023-05-16T02:45:00;97955.28;;;13.42;100.00
6532;BME280;3299;42.004;24.868;2023-05-16T02:47:25;97923.47;;;13.19;100.00
6532;BME280;3299;42.004;24.868;2023-05-16T02:49:50;97935.13;;;13.25;100.00
6532;BME280;3299;42.004;24.868;2023-05-16T02:52:19;97924.88;;;13.33;100.00
6532;BME280;3299;42.004;24.868;2023-05-16T02:54:44;97928.44;;;13.41;100.00
6532;BME280;3299;42.004;24.868;2023-05-16T02:57:10;97927.06;;;13.37;100.00
6532;BME280;3299;42.004;24.868;2023-05-16T02:59:36;97863.75;;;12.89;100.00
6532;BME280;3299;42.004;24.868;2023-05-16T03:02:01;97879.81;;;13.04;100.00
6532;BME280;3299;42.004;24.868;2023-05-16T03:04:27;97868.34;;;12.97;100.00
6532;BME280;3299;42.004;24.868;2023-05-16T03:06:53;97948.81;;;13.36;100.00
6532;BME280;3299;42.004;24.868;2023-05-16T03:09:18;97933.09;;;13.28;100.00
6532;BME280;3299;42.004;24.868;2023-05-16T03:11:45;97945.53;;;13.34;100.00
6532;BME280;3299;42.004;24.868;2023-05-16T03:14:10;97907.88;;;13.10;100.00
6532;BME280;3299;42.004;24.868;2023-05-16T03:16:37;97969.22;;;13.41;100.00
6532;BME280;3299;42.004;24.868;2023-05-16T03:19:03;97888.50;;;12.84;100.00
6532;BME280;3299;42.004;24.868;2023-05-16T03:21:29;97887.22;;;12.78;100.00
6532;BME280;3299;42.004;24.868;2023-05-16T03:23:55;97930.56;;;13.08;100.00
6532;BME280;3299;42.004;24.868;2023-05-16T03:26:21;97919.75;;;13.03;100.00
6532;BME280;3299;42.004;24.868;2023-05-16T03:28:47;97939.91;;;13.20;100.00
6532;BME280;3299;42.004;24.868;2023-05-16T03:31:12;97900.66;;;12.93;100.00
6532;BME280;3299;42.004;24.868;2023-05-16T03:33:38;97965.66;;;13.42;100.00
6532;BME280;3299;42.004;24.868;2023-05-16T03:36:03;97882.97;;;12.98;100.00
6532;BME280;3299;42.004;24.868;2023-05-16T03:38:29;97877.09;;;12.96;100.00
6532;BME280;3299;42.004;24.868;2023-05-16T03:40:55;97882.97;;;12.98;100.00
6532;BME280;3299;42.004;24.868;2023-05-16T03:43:20;97962.09;;;13.43;100.00
6532;BME280;3299;42.004;24.868;2023-05-16T03:45:46;97937.44;;;13.28;100.00
6532;BME280;3299;42.004;24.868;2023-05-16T03:48:11;97974.47;;;13.60;100.00
6532;BME280;3299;42.004;24.868;2023-05-16T03:50:36;97970.09;;;13.70;100.00
6532;BME280;3299;42.004;24.868;2023-05-16T03:53:02;97902.19;;;13.35;100.00
6532;BME280;3299;42.004;24.868;2023-05-16T03:55:28;97971.75;;;13.71;100.00
6532;BME280;3299;42.004;24.868;2023-05-16T03:57:55;97947.38;;;13.53;100.00
6532;BME280;3299;42.004;24.868;2023-05-16T04:00:21;97971.75;;;13.80;100.00
6532;BME280;3299;42.004;24.868;2023-05-16T04:02:46;97986.69;;;13.88;100.00
6532;BME280;3299;42.004;24.868;2023-05-16T04:05:12;97991.19;;;13.95;100.00
6532;BME280;3299;42.004;24.868;2023-05-16T04:07:38;97934.63;;;13.69;100.00
6532;BME280;3299;42.004;24.868;2023-05-16T04:10:04;97896.84;;;13.46;100.00
6532;BME280;3299;42.004;24.868;2023-05-16T04:12:30;97969.28;;;13.98;100.00
6532;BME280;3299;42.004;24.868;2023-05-16T04:14:55;97891.53;;;13.57;100.00
6532;BME280;3299;42.004;24.868;2023-05-16T04:17:20;97930.41;;;13.87;100.00
6532;BME280;3299;42.004;24.868;2023-05-16T04:19:46;97900.03;;;13.78;100.00
6532;BME280;3299;42.004;24.868;2023-05-16T04:22:11;97972.72;;;14.27;100.00
6532;BME280;3299;42.004;24.868;2023-05-16T04:24:37;97969.31;;;14.36;100.00
6532;BME280;3299;42.004;24.868;2023-05-16T04:27:02;97967.78;;;14.43;100.00
6532;BME280;3299;42.004;24.868;2023-05-16T04:29:29;97957.78;;;14.48;100.00
6532;BME280;3299;42.004;24.868;2023-05-16T04:31:55;97937.09;;;14.37;100.00
6532;BME280;3299;42.004;24.868;2023-05-16T04:34:20;97934.91;;;14.42;100.00
6532;BME280;3299;42.004;24.868;2023-05-16T04:36:47;97958.59;;;14.58;100.00
6532;BME280;3299;42.004;24.868;2023-05-16T04:39:12;97931.75;;;14.48;100.00
6532;BME280;3299;42.004;24.868;2023-05-16T04:41:38;97906.72;;;14.37;100.00
6532;BME280;3299;42.004;24.868;2023-05-16T04:44:03;97950.44;;;14.70;100.00
6532;BME280;3299;42.004;24.868;2023-05-16T04:46:29;97897.22;;;14.36;100.00
6532;BME280;3299;42.004;24.868;2023-05-16T04:48:55;97976.72;;;14.86;100.00
6532;BME280;3299;42.004;24.868;2023-05-16T04:51:21;97938.81;;;14.65;100.00
6532;BME280;3299;42.004;24.868;2023-05-16T04:53:47;97919.53;;;14.58;100.00
6532;BME280;3299;42.004;24.868;2023-05-16T04:56:12;97901.91;;;14.42;100.00
6532;BME280;3299;42.004;24.868;2023-05-16T04:58:38;97915.13;;;14.58;100.00
6532;BME280;3299;42.004;24.868;2023-05-16T05:01:03;97903.75;;;14.59;100.00
6532;BME280;3299;42.004;24.868;2023-05-16T05:03:29;97893.31;;;14.59;100.00
6532;BME280;3299;42.004;24.868;2023-05-16T05:05:54;97948.56;;;14.99;100.00
6532;BME280;3299;42.004;24.868;2023-05-16T05:08:20;97977.25;;;15.26;100.00
6532;BME280;3299;42.004;24.868;2023-05-16T05:10:46;97985.72;;;15.38;100.00
6532;BME280;3299;42.004;24.868;2023-05-16T05:13:11;97953.78;;;15.26;100.00
6532;BME280;3299;42.004;24.868;2023-05-16T05:15:37;97991.13;;;15.54;100.00
6532;BME280;3299;42.004;24.868;2023-05-16T05:18:03;97935.56;;;15.26;100.00
6532;BME280;3299;42.004;24.868;2023-05-16T05:20:28;97935.84;;;15.33;100.00
6532;BME280;3299;42.004;24.868;2023-05-16T05:22:53;97939.88;;;15.45;100.00
6532;BME280;3299;42.004;24.868;2023-05-16T05:25:19;97946.59;;;15.65;100.00
6532;BME280;3299;42.004;24.868;2023-05-16T05:27:44;97981.06;;;15.86;100.00
6532;BME280;3299;42.004;24.868;2023-05-16T05:30:10;97932.00;;;15.72;100.00
6532;BME280;3299;42.004;24.868;2023-05-16T05:32:36;97984.78;;;16.01;100.00
6532;BME280;3299;42.004;24.868;2023-05-16T05:35:01;97939.09;;;15.79;100.00
6532;BME280;3299;42.004;24.868;2023-05-16T05:37:28;97944.22;;;15.89;100.00
6532;BME280;3299;42.004;24.868;2023-05-16T05:39:54;97983.81;;;16.02;100.00
6532;BME280;3299;42.004;24.868;2023-05-16T05:42:20;97972.03;;;15.98;100.00
6532;BME280;3299;42.004;24.868;2023-05-16T05:44:45;97958.47;;;15.94;100.00
6532;BME280;3299;42.004;24.868;2023-05-16T05:47:10;97953.84;;;15.88;100.00
6532;BME280;3299;42.004;24.868;2023-05-16T05:49:36;97957.13;;;15.90;100.00
6532;BME280;3299;42.004;24.868;2023-05-16T05:52:02;97973.53;;;16.00;100.00
6532;BME280;3299;42.004;24.868;2023-05-16T05:54:27;97980.41;;;16.01;100.00
6532;BME280;3299;42.004;24.868;2023-05-16T05:56:53;97893.47;;;15.48;100.00
6532;BME280;3299;42.004;24.868;2023-05-16T05:59:18;97966.13;;;15.96;100.00
6532;BME280;3299;42.004;24.868;2023-05-16T06:01:43;97928.72;;;15.70;100.00
6532;BME280;3299;42.004;24.868;2023-05-16T06:04:09;97971.06;;;15.99;100.00
6532;BME280;3299;42.004;24.868;2023-05-16T06:06:36;97951.91;;;15.90;100.00
6532;BME280;3299;42.004;24.868;2023-05-16T06:09:02;97937.72;;;15.75;100.00
6532;BME280;3299;42.004;24.868;2023-05-16T06:11:27;97918.50;;;15.59;100.00
6532;BME280;3299;42.004;24.868;2023-05-16T06:13:53;97985.69;;;15.92;100.00
6532;BME280;3299;42.004;24.868;2023-05-16T06:16:18;97944.50;;;15.68;100.00
6532;BME280;3299;42.004;24.868;2023-05-16T06:18:44;97971.88;;;15.82;100.00
6532;BME280;3299;42.004;24.868;2023-05-16T06:21:09;97976.13;;;15.83;100.00
6532;BME280;3299;42.004;24.868;2023-05-16T06:23:35;97948.03;;;15.59;100.00
6532;BME280;3299;42.004;24.868;2023-05-16T06:26:01;97990.38;;;15.88;100.00
6532;BME280;3299;42.004;24.868;2023-05-16T06:28:27;97900.06;;;15.43;100.00
6532;BME280;3299;42.004;24.868;2023-05-16T06:30:53;97940.56;;;15.64;100.00
6532;BME280;3299;42.004;24.868;2023-05-16T06:33:18;97899.56;;;15.39;100.00
6532;BME280;3299;42.004;24.868;2023-05-16T06:35:44;97974.72;;;15.88;100.00
6532;BME280;3299;42.004;24.868;2023-05-16T06:38:09;97943.91;;;15.74;100.00
6532;BME280;3299;42.004;24.868;2023-05-16T06:40:35;97881.94;;;15.51;100.00
6532;BME280;3299;42.004;24.868;2023-05-16T06:43:00;97876.13;;;15.57;100.00
6532;BME280;3299;42.004;24.868;2023-05-16T06:45:26;97956.59;;;16.04;100.00
6532;BME280;3299;42.004;24.868;2023-05-16T06:47:51;97933.50;;;15.92;100.00
6532;BME280;3299;42.004;24.868;2023-05-16T06:50:17;97918.28;;;15.87;100.00
6532;BME280;3299;42.004;24.868;2023-05-16T06:52:42;97958.84;;;16.17;100.00
6532;BME280;3299;42.004;24.868;2023-05-16T06:55:08;97913.28;;;15.94;100.00
6532;BME280;3299;42.004;24.868;2023-05-16T06:57:33;97946.75;;;16.16;100.00
6532;BME280;3299;42.004;24.868;2023-05-16T06:59:59;97875.72;;;15.69;100.00
6532;BME280;3299;42.004;24.868;2023-05-16T07:02:24;97907.41;;;15.74;100.00
6532;BME280;3299;42.004;24.868;2023-05-16T07:04:50;97876.47;;;15.44;100.00
6532;BME280;3299;42.004;24.868;2023-05-16T07:07:16;97876.03;;;15.49;100.00
6532;BME280;3299;42.004;24.868;2023-05-16T07:09:41;97953.19;;;16.04;100.00
6532;BME280;3299;42.004;24.868;2023-05-16T07:12:07;97969.00;;;16.20;100.00
6532;BME280;3299;42.004;24.868;2023-05-16T07:14:33;97919.47;;;15.93;100.00
6532;BME280;3299;42.004;24.868;2023-05-16T07:16:58;97951.50;;;16.20;100.00
6532;BME280;3299;42.004;24.868;2023-05-16T07:19:24;97870.38;;;15.88;100.00
6532;BME280;3299;42.004;24.868;2023-05-16T07:21:49;97889.72;;;16.03;100.00
6532;BME280;3299;42.004;24.868;2023-05-16T07:24:15;97883.13;;;16.17;100.00
6532;BME280;3299;42.004;24.868;2023-05-16T07:26:40;97908.47;;;16.42;100.00
6532;BME280;3299;42.004;24.868;2023-05-16T07:29:06;97946.34;;;16.63;100.00
6532;BME280;3299;42.004;24.868;2023-05-16T07:31:31;97937.88;;;16.69;100.00
6532;BME280;3299;42.004;24.868;2023-05-16T07:33:56;97931.06;;;16.76;100.00
6532;BME280;3299;42.004;24.868;2023-05-16T07:36:22;97928.97;;;16.88;100.00
6532;BME280;3299;42.004;24.868;2023-05-16T07:38:48;97872.63;;;16.52;100.00
6532;BME280;3299;42.004;24.868;2023-05-16T07:41:13;97944.53;;;16.97;100.00
6532;BME280;3299;42.004;24.868;2023-05-16T07:43:38;97933.22;;;16.89;100.00
6532;BME280;3299;42.004;24.868;2023-05-16T07:46:04;97894.25;;;16.62;100.00
6532;BME280;3299;42.004;24.868;2023-05-16T07:48:29;97891.81;;;16.68;100.00
6532;BME280;3299;42.004;24.868;2023-05-16T07:50:55;97926.72;;;16.93;100.00
6532;BME280;3299;42.004;24.868;2023-05-16T07:53:21;97895.22;;;16.61;100.00
6532;BME280;3299;42.004;24.868;2023-05-16T07:55:47;97914.16;;;16.63;100.00
6532;BME280;3299;42.004;24.868;2023-05-16T07:58:13;97901.75;;;16.65;100.00
6532;BME280;3299;42.004;24.868;2023-05-16T08:00:38;97876.56;;;16.56;100.00
6532;BME280;3299;42.004;24.868;2023-05-16T08:03:04;97856.22;;;16.42;100.00
6532;BME280;3299;42.004;24.868;2023-05-16T08:05:30;97914.06;;;16.80;100.00
6532;BME280;3299;42.004;24.868;2023-05-16T08:07:56;97836.41;;;16.31;100.00
6532;BME280;3299;42.004;24.868;2023-05-16T08:10:21;97922.22;;;16.69;100.00
6532;BME280;3299;42.004;24.868;2023-05-16T08:12:48;97901.56;;;16.58;100.00
6532;BME280;3299;42.004;24.868;2023-05-16T08:15:13;97899.91;;;16.57;100.00
6532;BME280;3299;42.004;24.868;2023-05-16T08:17:39;97886.41;;;16.62;100.00
6532;BME280;3299;42.004;24.868;2023-05-16T08:20:05;97852.00;;;16.41;100.00
6532;BME280;3299;42.004;24.868;2023-05-16T08:22:31;97900.22;;;16.88;100.00
6532;BME280;3299;42.004;24.868;2023-05-16T08:24:57;97838.38;;;16.55;100.00
6532;BME280;3299;42.004;24.868;2023-05-16T08:27:24;97892.13;;;16.99;100.00
6532;BME280;3299;42.004;24.868;2023-05-16T08:29:50;97847.94;;;16.80;100.00
6532;BME280;3299;42.004;24.868;2023-05-16T08:32:15;97827.03;;;16.80;100.00
6532;BME280;3299;42.004;24.868;2023-05-16T08:34:41;97860.16;;;17.13;100.00
6532;BME280;3299;42.004;24.868;2023-05-16T08:37:06;97882.31;;;17.42;100.00
6532;BME280;3299;42.004;24.868;2023-05-16T08:39:32;97864.63;;;17.28;100.00
6532;BME280;3299;42.004;24.868;2023-05-16T08:41:57;97906.72;;;17.51;100.00
6532;BME280;3299;42.004;24.868;2023-05-16T08:44:24;97859.84;;;17.16;100.00
6532;BME280;3299;42.004;24.868;2023-05-16T08:46:51;97851.78;;;17.09;100.00
6532;BME280;3299;42.004;24.868;2023-05-16T08:49:17;97852.31;;;17.13;100.00
6532;BME280;3299;42.004;24.868;2023-05-16T08:51:45;97858.56;;;17.28;100.00
6532;BME280;3299;42.004;24.868;2023-05-16T08:54:13;97830.94;;;17.17;100.00
6532;BME280;3299;42.004;24.868;2023-05-16T08:56:40;97881.53;;;17.50;100.00
6532;BME280;3299;42.004;24.868;2023-05-16T08:59:06;97890.81;;;17.44;100.00
6532;BME280;3299;42.004;24.868;2023-05-16T09:01:32;97819.97;;;17.14;100.00
6532;BME280;3299;42.004;24.868;2023-05-16T09:03:59;97824.72;;;17.26;100.00
6532;BME280;3299;42.004;24.868;2023-05-16T09:06:25;97834.09;;;17.45;100.00
6532;BME280;3299;42.004;24.868;2023-05-16T09:08:52;97877.47;;;17.79;100.00
6532;BME280;3299;42.004;24.868;2023-05-16T09:11:18;97814.81;;;17.46;100.00
6532;BME280;3299;42.004;24.868;2023-05-16T09:13:43;97855.41;;;17.74;100.00
6532;BME280;3299;42.004;24.868;2023-05-16T09:16:16;97827.28;;;17.60;100.00
6532;BME280;3299;42.004;24.868;2023-05-16T09:18:43;97901.34;;;18.08;100.00
6532;BME280;3299;42.004;24.868;2023-05-16T09:21:10;97855.88;;;17.77;100.00
6532;BME280;3299;42.004;24.868;2023-05-16T09:23:35;97871.59;;;17.93;100.00
6532;BME280;3299;42.004;24.868;2023-05-16T09:26:02;97828.75;;;17.70;100.00
6532;BME280;3299;42.004;24.868;2023-05-16T09:28:29;97833.31;;;17.76;100.00
6532;BME280;3299;42.004;24.868;2023-05-16T09:30:55;97844.75;;;17.83;100.00
6532;BME280;3299;42.004;24.868;2023-05-16T09:33:25;97788.66;;;17.46;100.00
6532;BME280;3299;42.004;24.868;2023-05-16T09:35:58;97847.22;;;17.85;100.00
6532;BME280;3299;42.004;24.868;2023-05-16T09:38:25;97779.81;;;17.47;100.00
6532;BME280;3299;42.004;24.868;2023-05-16T09:40:52;97774.94;;;17.52;100.00
6532;BME280;3299;42.004;24.868;2023-05-16T09:43:19;97846.56;;;17.99;100.00
6532;BME280;3299;42.004;24.868;2023-05-16T09:45:47;97813.50;;;17.82;100.00
6532;BME280;3299;42.004;24.868;2023-05-16T09:48:13;97768.41;;;17.56;100.00
6532;BME280;3299;42.004;24.868;2023-05-16T09:50:39;97759.53;;;17.65;100.00
6532;BME280;3299;42.004;24.868;2023-05-16T09:53:07;97821.34;;;17.98;100.00
6532;BME280;3299;42.004;24.868;2023-05-16T09:55:32;97771.81;;;17.64;100.00
6532;BME280;3299;42.004;24.868;2023-05-16T09:57:58;97783.09;;;17.65;100.00
6532;BME280;3299;42.004;24.868;2023-05-16T10:00:30;97819.56;;;17.82;100.00
6532;BME280;3299;42.004;24.868;2023-05-16T10:02:57;97843.94;;;17.99;100.00
6532;BME280;3299;42.004;24.868;2023-05-16T10:05:25;97862.59;;;18.12;100.00
6532;BME280;3299;42.004;24.868;2023-05-16T10:07:54;97818.28;;;17.86;100.00
6532;BME280;3299;42.004;24.868;2023-05-16T10:10:20;97793.56;;;17.65;100.00
6532;BME280;3299;42.004;24.868;2023-05-16T10:12:47;97856.69;;;18.10;100.00
6532;BME280;3299;42.004;24.868;2023-05-16T10:15:13;97845.72;;;18.22;100.00
6532;BME280;3299;42.004;24.868;2023-05-16T10:17:39;97827.72;;;18.27;100.00
6532;BME280;3299;42.004;24.868;2023-05-16T10:20:09;97804.13;;;18.19;100.00
6532;BME280;3299;42.004;24.868;2023-05-16T10:22:42;97835.69;;;18.50;100.00
6532;BME280;3299;42.004;24.868;2023-05-16T10:25:11;97820.44;;;18.61;100.00
6532;BME280;3299;42.004;24.868;2023-05-16T10:27:41;97790.84;;;18.53;100.00
6532;BME280;3299;42.004;24.868;2023-05-16T10:30:07;97808.09;;;18.70;100.00
6532;BME280;3299;42.004;24.868;2023-05-16T10:32:35;97801.84;;;18.79;100.00
6532;BME280;3299;42.004;24.868;2023-05-16T10:35:01;97769.94;;;18.75;100.00
6532;BME280;3299;42.004;24.868;2023-05-16T10:37:28;97780.28;;;18.99;100.00
6532;BME280;3299;42.004;24.868;2023-05-16T10:39:56;97789.16;;;19.29;100.00
6532;BME280;3299;42.004;24.868;2023-05-16T10:42:23;97732.84;;;19.09;100.00
6532;BME280;3299;42.004;24.868;2023-05-16T10:44:52;97794.22;;;19.53;100.00
6532;BME280;3299;42.004;24.868;2023-05-16T10:47:19;97796.97;;;19.59;100.00
6532;BME280;3299;42.004;24.868;2023-05-16T10:49:44;97721.28;;;19.26;100.00
6532;BME280;3299;42.004;24.868;2023-05-16T10:52:11;97767.63;;;19.56;100.00
6532;BME280;3299;42.004;24.868;2023-05-16T10:54:40;97802.81;;;19.84;100.00
6532;BME280;3299;42.004;24.868;2023-05-16T10:57:11;97780.41;;;19.96;100.00
6532;BME280;3299;42.004;24.868;2023-05-16T10:59:46;97788.00;;;20.13;100.00
6532;BME280;3299;42.004;24.868;2023-05-16T11:04:48;97763.09;;;19.87;100.00
6532;BME280;3299;42.004;24.868;2023-05-16T11:07:16;97773.78;;;19.85;100.00
6532;BME280;3299;42.004;24.868;2023-05-16T11:09:45;97724.13;;;19.61;100.00
6532;BME280;3299;42.004;24.868;2023-05-16T11:12:11;97731.75;;;19.71;100.00
6532;BME280;3299;42.004;24.868;2023-05-16T11:14:40;97754.66;;;19.77;100.00
6532;BME280;3299;42.004;24.868;2023-05-16T11:17:20;97711.50;;;19.57;100.00
6532;BME280;3299;42.004;24.868;2023-05-16T11:19:51;97753.19;;;19.74;100.00
6532;BME280;3299;42.004;24.868;2023-05-16T11:29:56;97789.56;;;20.00;100.00
6532;BME280;3299;42.004;24.868;2023-05-16T11:32:22;97801.59;;;19.94;100.00
6532;BME280;3299;42.004;24.868;2023-05-16T11:34:49;97768.78;;;19.76;100.00
6532;BME280;3299;42.004;24.868;2023-05-16T11:37:16;97744.41;;;19.67;100.00
6532;BME280;3299;42.004;24.868;2023-05-16T11:39:42;97780.34;;;20.04;100.00
6532;BME280;3299;42.004;24.868;2023-05-16T11:42:08;97729.69;;;19.81;100.00
6532;BME280;3299;42.004;24.868;2023-05-16T11:44:34;97792.53;;;20.34;100.00
6532;BME280;3299;42.004;24.868;2023-05-16T11:46:59;97747.22;;;20.32;100.00
6532;BME280;3299;42.004;24.868;2023-05-16T11:49:28;97727.38;;;20.29;100.00
6532;BME280;3299;42.004;24.868;2023-05-16T11:51:54;97785.53;;;20.70;100.00
6532;BME280;3299;42.004;24.868;2023-05-16T11:54:21;97711.97;;;20.26;100.00
6532;BME280;3299;42.004;24.868;2023-05-16T11:56:49;97736.06;;;20.44;100.00
6532;BME280;3299;42.004;24.868;2023-05-16T11:59:15;97743.94;;;20.44;100.00
6532;BME280;3299;42.004;24.868;2023-05-16T12:01:41;97737.25;;;20.42;100.00
6532;BME280;3299;42.004;24.868;2023-05-16T12:04:10;97750.28;;;20.50;100.00
6532;BME280;3299;42.004;24.868;2023-05-16T12:06:37;97779.75;;;20.60;100.00
6532;BME280;3299;42.004;24.868;2023-05-16T12:09:06;97778.38;;;20.64;100.00
6532;BME280;3299;42.004;24.868;2023-05-16T12:11:39;97714.88;;;20.17;100.00
6532;BME280;3299;42.004;24.868;2023-05-16T12:14:06;97696.09;;;19.91;100.00
6532;BME280;3299;42.004;24.868;2023-05-16T12:16:33;97709.31;;;19.83;100.00
6532;BME280;3299;42.004;24.868;2023-05-16T12:19:01;97739.38;;;19.95;100.00
6532;BME280;3299;42.004;24.868;2023-05-16T12:21:27;97685.28;;;19.71;100.00
6532;BME280;3299;42.004;24.868;2023-05-16T12:23:54;97753.19;;;20.26;100.00
6532;BME280;3299;42.004;24.868;2023-05-16T12:26:25;97725.00;;;20.20;100.00
6532;BME280;3299;42.004;24.868;2023-05-16T12:28:54;97751.66;;;20.46;100.00
6532;BME280;3299;42.004;24.868;2023-05-16T12:31:22;97695.38;;;20.26;100.00
6532;BME280;3299;42.004;24.868;2023-05-16T12:33:52;97724.00;;;20.50;100.00
6532;BME280;3299;42.004;24.868;2023-05-16T12:36:18;97756.69;;;20.76;100.00
6532;BME280;3299;42.004;24.868;2023-05-16T12:38:45;97769.03;;;20.90;100.00
6532;BME280;3299;42.004;24.868;2023-05-16T12:41:16;97726.84;;;20.84;100.00
6532;BME280;3299;42.004;24.868;2023-05-16T12:43:42;97701.81;;;20.88;100.00
6532;BME280;3299;42.004;24.868;2023-05-16T12:46:09;97745.97;;;21.28;100.00
6532;BME280;3299;42.004;24.868;2023-05-16T12:48:36;97677.16;;;21.31;100.00
6532;BME280;3299;42.004;24.868;2023-05-16T12:51:13;97719.47;;;21.78;100.00
6532;BME280;3299;42.004;24.868;2023-05-16T12:53:41;97674.50;;;21.73;100.00
6532;BME280;3299;42.004;24.868;2023-05-16T12:56:08;97744.13;;;22.25;100.00
6532;BME280;3299;42.004;24.868;2023-05-16T12:58:33;97722.44;;;22.23;100.00
6532;BME280;3299;42.004;24.868;2023-05-16T13:00:59;97710.16;;;22.09;100.00
6532;BME280;3299;42.004;24.868;2023-05-16T13:03:24;97654.88;;;21.82;100.00
6532;BME280;3299;42.004;24.868;2023-05-16T13:05:50;97715.25;;;22.11;100.00
6532;BME280;3299;42.004;24.868;2023-05-16T13:08:17;97710.28;;;22.29;100.00
6532;BME280;3299;42.004;24.868;2023-05-16T13:10:42;97683.44;;;22.53;100.00
6532;BME280;3299;42.004;24.868;2023-05-16T13:13:07;97692.09;;;22.87;100.00
6532;BME280;3299;42.004;24.868;2023-05-16T13:15:33;97717.38;;;23.22;100.00
6532;BME280;3299;42.004;24.868;2023-05-16T13:17:58;97658.84;;;22.99;100.00
6532;BME280;3299;42.004;24.868;2023-05-16T13:20:24;97687.13;;;23.51;100.00
6532;BME280;3299;42.004;24.868;2023-05-16T13:22:49;97690.75;;;23.82;100.00
6532;BME280;3299;42.004;24.868;2023-05-16T13:25:15;97675.69;;;24.08;100.00